This is the latest recevied weather packets stored in our database for station/object SK4BW-10. If no packets are shown the sender has not sent any weather packets the latest 10 day(s).
| Time | Temp. | Humidity | Pressure | Rain* | Wind** | Luminosity | Snow |
|---|---|---|---|---|---|---|---|
| 1777863394 | 3.33° C | 100% | 1003.9 hPa | - | - | - | - |
| 1777862493 | 3.33° C | 100% | 1004 hPa | - | - | - | - |
| 1777861592 | 3.33° C | 100% | 1003.9 hPa | - | - | - | - |
| 1777860691 | 3.33° C | 100% | 1004 hPa | - | - | - | - |
| 1777859790 | 3.33° C | 99% | 1004.2 hPa | - | - | - | - |
| 1777858889 | 3.89° C | 100% | 1004.4 hPa | - | - | - | - |
| 1777857989 | 3.89° C | 100% | 1004.6 hPa | - | - | - | - |
| 1777857088 | 3.89° C | 100% | 1004.8 hPa | - | - | - | - |
| 1777856187 | 3.89° C | 100% | 1004.9 hPa | - | - | - | - |
| 1777855286 | 3.89° C | 100% | 1005 hPa | - | - | - | - |
| 1777854383 | 3.89° C | 100% | 1005.2 hPa | - | - | - | - |
| 1777853482 | 3.89° C | 100% | 1005.3 hPa | - | - | - | - |
| 1777852582 | 3.89° C | 100% | 1005.4 hPa | - | - | - | - |
| 1777851681 | 3.89° C | 100% | 1005.6 hPa | - | - | - | - |
| 1777850780 | 3.89° C | 100% | 1005.6 hPa | - | - | - | - |
| 1777849879 | 3.89° C | 100% | 1005.8 hPa | - | - | - | - |
| 1777848978 | 4.44° C | 95% | 1005.9 hPa | - | - | - | - |
| 1777848077 | 5° C | 87% | 1005.9 hPa | - | - | - | - |
| 1777847176 | 4.44° C | 100% | 1005.9 hPa | - | - | - | - |
| 1777846276 | 3.89° C | 100% | 1006 hPa | - | - | - | - |
| 1777845375 | 3.33° C | 100% | 1006.2 hPa | - | - | - | - |
| 1777844474 | 3.33° C | 100% | 1006.1 hPa | - | - | - | - |
| 1777843573 | 3.89° C | 100% | 1006.3 hPa | - | - | - | - |
| 1777842672 | 3.89° C | 100% | 1006.5 hPa | - | - | - | - |
| 1777841772 | 3.33° C | 100% | 1006.8 hPa | - | - | - | - |
* Rain since midnight (hover to see other rain measurements)
** Current wind speed in m/s (hover to see current wind gust speed)